ADDS TAF Board (Experimental) INFO Settings
IDs: Format: Expanded Condensed

KJFK - New York/Kennedy Int, NY, US

Issued at 0830 UTC 28 Sep 2016
Updated at 0833 UTC 28 Sep 2016
Time0751Z 28/09Z 28/10Z 28/11Z 28/12Z 28/13Z 28/14Z 28/15Z 28/16Z 28/17Z 28/18Z 28/19Z 28/20Z 28/21Z
Type OBS PRVL PRVL PRVL
  [TEMP]  
PRVL
  [TEMP]  
PRVL
  [TEMP]  
PRVL PRVL PRVL PRVL PRVL PRVL PRVL PRVL
VIS 9 >6 >6 >6 >6 >6 >6 >6 >6 >6 >6 >6 >6 >6
CIG -- -- -- 250
  [40]  
250
  [40]  
250
  [40]  
25 25 25 25 20 20 20 20
Cover FEW SCT SCT BKN
  [BKN]  
BKN
  [BKN]  
BKN
  [BKN]  
BKN BKN BKN BKN BKN BKN BKN BKN
FltCat VFR VFR VFR VFR
  [VFR]  
VFR
  [VFR]  
VFR
  [VFR]  
MVFR MVFR MVFR MVFR MVFR MVFR MVFR MVFR
WX -- -- -- --
  [--]  
--
  [--]  
--
  [--]  
-- -- -- -- -RA -RA -RA -RA
WDir 30 30 30 40
[40]
40
[40]
40
[40]
50 50 50 50 50 50 50 50
WSpd 5 6 6 8
  [8]  
8
  [8]  
8
  [8]  
12 12 12 12 14 14 14 14
WGst -- -- -- --
  [--]  
--
  [--]  
--
  [--]  
17 17 17 17 21 21 21 21
R04/22
XWnd 0 0 0 -1 -1 -1 -4 -4 -4 -4 -5 -5 -5 -5
XGst -- -- -- 0 0 0 -6 -6 -6 -6 -7 -7 -7 -7
HWnd 5 6 6 8 8 8 11 11 11 11 13 13 13 13
HGst -- -- -- 0 0 0 16 16 16 16 20 20 20 20
R13/31
XWnd 5 6 6 8 8 8 11 11 11 11 13 13 13 13
XGst -- -- -- 0 0 0 16 16 16 16 20 20 20 20
HWnd -0 -0 -0 1 1 1 4 4 4 4 5 5 5 5
HGst -- -- -- 0 0 0 6 6 6 6 7 7 7 7

Raw TAF
KJFK 280830Z 2809/2912 03006KT P6SM SCT250
  FM281100 04008KT P6SM SCT040 BKN250
  TEMPO 2811/2814 BKN040
  FM281400 05012G17KT P6SM BKN025
  FM281800 05014G21KT P6SM -RA BKN020
  FM290300 05014G21KT P6SM -RA BKN015


Raw METAR
KJFK 280751Z 03005KT 9SM FEW250 15/14 A3002 RMK AO2 SLP164 T01500139
KJFK 280651Z 06004KT 10SM FEW250 16/14 A3001 RMK AO2 SLP163 T01560139
KJFK 280551Z 07004KT 10SM SCT250 16/14 A3000 RMK AO2 SLP160 T01560144 10200 20156 53011

METAR Board
Radar Display
Forecast Discussion

TAF Board Legend

Potential Impact
Threat None Slight Moderate High
Visibility (sm) ≥5.1 5.1>X≥3 3>X≥1 <1
Ceiling (100 ft) ≥30.1 30.1>X≥10 10>X≥5 <5
Wind Speed (kt) <10 10≤X<20 20≤X<30 ≥30
Wind Gust (kt) <15 15≤X<25 25≤X<35 ≥35
Weather No Wx Reported VCTS,-TS,-FZRA,SN TS,FZRA +TS,+FZRA,+SN